sensor_id;sensor_type;location;lat;lon;timestamp;P1;durP1;ratioP1;P2;durP2;ratioP2
69197;SDS011;56311;50.298;8.514;2022-11-27T00:00:59;19.75;;;10.48;;
69197;SDS011;56311;50.298;8.514;2022-11-27T00:03:26;22.85;;;11.13;;
69197;SDS011;56311;50.298;8.514;2022-11-27T00:05:54;24.90;;;11.57;;
69197;SDS011;56311;50.298;8.514;2022-11-27T00:08:21;18.45;;;10.38;;
69197;SDS011;56311;50.298;8.514;2022-11-27T00:10:48;21.05;;;11.90;;
69197;SDS011;56311;50.298;8.514;2022-11-27T00:13:16;17.80;;;11.38;;
69197;SDS011;56311;50.298;8.514;2022-11-27T00:15:43;19.67;;;11.25;;
69197;SDS011;56311;50.298;8.514;2022-11-27T00:18:10;18.95;;;10.80;;
69197;SDS011;56311;50.298;8.514;2022-11-27T00:20:37;21.73;;;11.57;;
69197;SDS011;56311;50.298;8.514;2022-11-27T00:23:04;19.63;;;11.30;;
69197;SDS011;56311;50.298;8.514;2022-11-27T00:25:31;19.38;;;10.75;;
69197;SDS011;56311;50.298;8.514;2022-11-27T00:27:58;22.85;;;11.15;;
69197;SDS011;56311;50.298;8.514;2022-11-27T00:30:26;23.10;;;12.68;;
69197;SDS011;56311;50.298;8.514;2022-11-27T00:32:53;20.15;;;11.82;;
69197;SDS011;56311;50.298;8.514;2022-11-27T00:35:19;18.42;;;10.48;;
69197;SDS011;56311;50.298;8.514;2022-11-27T00:37:46;20.00;;;11.52;;
69197;SDS011;56311;50.298;8.514;2022-11-27T00:40:13;18.45;;;10.88;;
69197;SDS011;56311;50.298;8.514;2022-11-27T00:42:40;23.42;;;11.02;;
69197;SDS011;56311;50.298;8.514;2022-11-27T00:45:08;17.65;;;8.90;;
69197;SDS011;56311;50.298;8.514;2022-11-27T00:47:36;19.80;;;9.95;;
69197;SDS011;56311;50.298;8.514;2022-11-27T00:50:03;21.85;;;10.38;;
69197;SDS011;56311;50.298;8.514;2022-11-27T00:52:31;22.77;;;10.38;;
69197;SDS011;56311;50.298;8.514;2022-11-27T00:54:58;16.40;;;9.70;;
69197;SDS011;56311;50.298;8.514;2022-11-27T00:57:25;18.50;;;9.45;;
69197;SDS011;56311;50.298;8.514;2022-11-27T00:59:51;18.30;;;10.13;;
69197;SDS011;56311;50.298;8.514;2022-11-27T01:02:18;21.65;;;10.32;;
69197;SDS011;56311;50.298;8.514;2022-11-27T01:04:46;17.50;;;9.75;;
69197;SDS011;56311;50.298;8.514;2022-11-27T01:07:14;22.17;;;10.68;;
69197;SDS011;56311;50.298;8.514;2022-11-27T01:09:41;15.85;;;9.88;;
69197;SDS011;56311;50.298;8.514;2022-11-27T01:12:07;17.95;;;10.38;;
69197;SDS011;56311;50.298;8.514;2022-11-27T01:14:34;22.98;;;10.60;;
69197;SDS011;56311;50.298;8.514;2022-11-27T01:17:01;18.58;;;9.27;;
69197;SDS011;56311;50.298;8.514;2022-11-27T01:19:28;19.17;;;9.38;;
69197;SDS011;56311;50.298;8.514;2022-11-27T01:21:56;16.42;;;9.80;;
69197;SDS011;56311;50.298;8.514;2022-11-27T01:24:23;18.80;;;9.82;;
69197;SDS011;56311;50.298;8.514;2022-11-27T01:26:50;17.65;;;10.02;;
69197;SDS011;56311;50.298;8.514;2022-11-27T01:29:16;17.50;;;10.82;;
69197;SDS011;56311;50.298;8.514;2022-11-27T01:31:43;21.02;;;9.13;;
69197;SDS011;56311;50.298;8.514;2022-11-27T01:34:12;15.52;;;8.52;;
69197;SDS011;56311;50.298;8.514;2022-11-27T01:36:40;18.05;;;8.90;;
69197;SDS011;56311;50.298;8.514;2022-11-27T01:39:09;17.77;;;9.52;;
69197;SDS011;56311;50.298;8.514;2022-11-27T01:41:40;19.65;;;9.85;;
69197;SDS011;56311;50.298;8.514;2022-11-27T01:47:10;18.67;;;8.25;;
69197;SDS011;56311;50.298;8.514;2022-11-27T01:49:42;18.15;;;9.05;;
69197;SDS011;56311;50.298;8.514;2022-11-27T01:52:12;19.88;;;8.60;;
69197;SDS011;56311;50.298;8.514;2022-11-27T01:54:44;12.90;;;7.80;;
69197;SDS011;56311;50.298;8.514;2022-11-27T01:57:14;20.95;;;8.20;;
69197;SDS011;56311;50.298;8.514;2022-11-27T01:59:44;16.95;;;8.35;;
69197;SDS011;56311;50.298;8.514;2022-11-27T02:02:11;17.92;;;8.98;;
69197;SDS011;56311;50.298;8.514;2022-11-27T02:04:39;20.02;;;8.52;;
69197;SDS011;56311;50.298;8.514;2022-11-27T02:07:06;18.60;;;8.57;;
69197;SDS011;56311;50.298;8.514;2022-11-27T02:09:33;17.25;;;9.23;;
69197;SDS011;56311;50.298;8.514;2022-11-27T02:12:03;16.25;;;8.65;;
69197;SDS011;56311;50.298;8.514;2022-11-27T02:14:43;14.80;;;8.07;;
69197;SDS011;56311;50.298;8.514;2022-11-27T02:17:19;12.05;;;7.50;;
69197;SDS011;56311;50.298;8.514;2022-11-27T02:19:55;12.95;;;7.80;;
69197;SDS011;56311;50.298;8.514;2022-11-27T02:22:39;14.32;;;7.55;;
69197;SDS011;56311;50.298;8.514;2022-11-27T02:25:19;14.70;;;7.93;;
69197;SDS011;56311;50.298;8.514;2022-11-27T02:28:01;15.40;;;7.70;;
69197;SDS011;56311;50.298;8.514;2022-11-27T02:30:42;14.65;;;7.75;;
69197;SDS011;56311;50.298;8.514;2022-11-27T02:33:17;19.00;;;8.27;;
69197;SDS011;56311;50.298;8.514;2022-11-27T02:35:47;15.80;;;8.25;;
69197;SDS011;56311;50.298;8.514;2022-11-27T02:38:19;12.20;;;6.95;;
69197;SDS011;56311;50.298;8.514;2022-11-27T02:40:49;17.33;;;7.95;;
69197;SDS011;56311;50.298;8.514;2022-11-27T02:43:21;14.00;;;7.32;;
69197;SDS011;56311;50.298;8.514;2022-11-27T02:45:55;17.15;;;8.43;;
69197;SDS011;56311;50.298;8.514;2022-11-27T02:48:26;15.50;;;8.05;;
69197;SDS011;56311;50.298;8.514;2022-11-27T02:50:58;15.83;;;8.00;;
69197;SDS011;56311;50.298;8.514;2022-11-27T02:53:28;17.80;;;8.07;;
69197;SDS011;56311;50.298;8.514;2022-11-27T02:55:58;14.45;;;7.53;;
69197;SDS011;56311;50.298;8.514;2022-11-27T02:58:28;15.23;;;7.75;;
69197;SDS011;56311;50.298;8.514;2022-11-27T03:00:57;13.35;;;7.85;;
69197;SDS011;56311;50.298;8.514;2022-11-27T03:03:27;16.05;;;9.43;;
69197;SDS011;56311;50.298;8.514;2022-11-27T03:05:59;17.90;;;9.93;;
69197;SDS011;56311;50.298;8.514;2022-11-27T03:08:32;20.27;;;10.57;;
69197;SDS011;56311;50.298;8.514;2022-11-27T03:11:04;16.45;;;10.05;;
69197;SDS011;56311;50.298;8.514;2022-11-27T03:13:33;16.77;;;9.13;;
69197;SDS011;56311;50.298;8.514;2022-11-27T03:16:06;18.40;;;9.18;;
69197;SDS011;56311;50.298;8.514;2022-11-27T03:18:38;15.63;;;9.18;;
69197;SDS011;56311;50.298;8.514;2022-11-27T03:21:09;20.20;;;10.10;;
69197;SDS011;56311;50.298;8.514;2022-11-27T03:23:46;15.68;;;9.05;;
69197;SDS011;56311;50.298;8.514;2022-11-27T03:26:13;17.15;;;9.20;;
69197;SDS011;56311;50.298;8.514;2022-11-27T03:28:40;19.45;;;10.63;;
69197;SDS011;56311;50.298;8.514;2022-11-27T03:31:11;23.92;;;12.43;;
69197;SDS011;56311;50.298;8.514;2022-11-27T03:33:38;21.52;;;13.52;;
69197;SDS011;56311;50.298;8.514;2022-11-27T03:36:12;24.17;;;13.30;;
69197;SDS011;56311;50.298;8.514;2022-11-27T03:38:40;25.55;;;13.70;;
69197;SDS011;56311;50.298;8.514;2022-11-27T03:41:10;28.88;;;12.75;;
69197;SDS011;56311;50.298;8.514;2022-11-27T03:43:45;29.85;;;14.27;;
69197;SDS011;56311;50.298;8.514;2022-11-27T03:46:26;25.30;;;13.23;;
69197;SDS011;56311;50.298;8.514;2022-11-27T03:49:05;27.50;;;14.00;;
69197;SDS011;56311;50.298;8.514;2022-11-27T03:51:40;26.85;;;13.02;;
69197;SDS011;56311;50.298;8.514;2022-11-27T03:54:18;26.33;;;12.82;;
69197;SDS011;56311;50.298;8.514;2022-11-27T03:56:56;27.42;;;13.57;;
69197;SDS011;56311;50.298;8.514;2022-11-27T03:59:29;28.40;;;13.95;;
69197;SDS011;56311;50.298;8.514;2022-11-27T04:02:00;26.13;;;14.15;;
69197;SDS011;56311;50.298;8.514;2022-11-27T04:04:27;25.48;;;14.82;;
69197;SDS011;56311;50.298;8.514;2022-11-27T04:06:54;27.27;;;14.82;;
69197;SDS011;56311;50.298;8.514;2022-11-27T04:09:21;26.13;;;14.63;;
69197;SDS011;56311;50.298;8.514;2022-11-27T04:11:47;30.35;;;14.23;;
69197;SDS011;56311;50.298;8.514;2022-11-27T04:14:14;27.83;;;14.10;;
69197;SDS011;56311;50.298;8.514;2022-11-27T04:16:41;29.70;;;15.88;;
69197;SDS011;56311;50.298;8.514;2022-11-27T04:19:09;24.67;;;14.27;;
69197;SDS011;56311;50.298;8.514;2022-11-27T04:21:35;24.30;;;13.38;;
69197;SDS011;56311;50.298;8.514;2022-11-27T04:24:02;27.40;;;13.48;;
69197;SDS011;56311;50.298;8.514;2022-11-27T04:26:29;26.20;;;13.65;;
69197;SDS011;56311;50.298;8.514;2022-11-27T04:28:55;27.58;;;13.63;;
69197;SDS011;56311;50.298;8.514;2022-11-27T04:31:22;26.55;;;13.77;;
69197;SDS011;56311;50.298;8.514;2022-11-27T04:33:49;22.65;;;12.82;;
69197;SDS011;56311;50.298;8.514;2022-11-27T04:36:17;28.92;;;12.82;;
69197;SDS011;56311;50.298;8.514;2022-11-27T04:38:44;22.33;;;11.45;;
69197;SDS011;56311;50.298;8.514;2022-11-27T04:41:10;19.88;;;12.23;;
69197;SDS011;56311;50.298;8.514;2022-11-27T04:43:37;24.90;;;11.90;;
69197;SDS011;56311;50.298;8.514;2022-11-27T04:46:04;27.27;;;12.57;;
69197;SDS011;56311;50.298;8.514;2022-11-27T04:48:30;24.67;;;11.98;;
69197;SDS011;56311;50.298;8.514;2022-11-27T04:50:57;21.63;;;12.38;;
69197;SDS011;56311;50.298;8.514;2022-11-27T04:53:25;28.73;;;12.90;;
69197;SDS011;56311;50.298;8.514;2022-11-27T04:55:52;26.85;;;12.13;;
69197;SDS011;56311;50.298;8.514;2022-11-27T04:58:18;24.10;;;12.98;;
69197;SDS011;56311;50.298;8.514;2022-11-27T05:00:45;28.00;;;13.63;;
69197;SDS011;56311;50.298;8.514;2022-11-27T05:03:12;28.75;;;14.02;;
69197;SDS011;56311;50.298;8.514;2022-11-27T05:05:39;26.52;;;13.15;;
69197;SDS011;56311;50.298;8.514;2022-11-27T05:08:06;25.80;;;12.45;;
69197;SDS011;56311;50.298;8.514;2022-11-27T05:10:34;21.75;;;12.02;;
69197;SDS011;56311;50.298;8.514;2022-11-27T05:13:00;28.45;;;12.65;;
69197;SDS011;56311;50.298;8.514;2022-11-27T05:15:27;25.05;;;12.90;;
69197;SDS011;56311;50.298;8.514;2022-11-27T05:17:54;29.00;;;12.70;;
69197;SDS011;56311;50.298;8.514;2022-11-27T05:20:21;24.48;;;13.02;;
69197;SDS011;56311;50.298;8.514;2022-11-27T05:22:47;26.92;;;13.07;;
69197;SDS011;56311;50.298;8.514;2022-11-27T05:25:14;26.75;;;12.65;;
69197;SDS011;56311;50.298;8.514;2022-11-27T05:27:42;25.48;;;13.30;;
69197;SDS011;56311;50.298;8.514;2022-11-27T05:30:09;26.75;;;13.18;;
69197;SDS011;56311;50.298;8.514;2022-11-27T05:32:37;29.85;;;14.70;;
69197;SDS011;56311;50.298;8.514;2022-11-27T05:35:04;27.85;;;14.32;;
69197;SDS011;56311;50.298;8.514;2022-11-27T05:37:31;24.98;;;13.55;;
69197;SDS011;56311;50.298;8.514;2022-11-27T05:39:58;39.08;;;16.38;;
69197;SDS011;56311;50.298;8.514;2022-11-27T05:42:25;21.70;;;13.68;;
69197;SDS011;56311;50.298;8.514;2022-11-27T05:44:53;29.77;;;14.68;;
69197;SDS011;56311;50.298;8.514;2022-11-27T05:47:23;31.60;;;14.45;;
69197;SDS011;56311;50.298;8.514;2022-11-27T05:49:50;30.83;;;14.38;;
69197;SDS011;56311;50.298;8.514;2022-11-27T05:52:17;26.55;;;13.88;;
69197;SDS011;56311;50.298;8.514;2022-11-27T05:54:44;30.10;;;14.27;;
69197;SDS011;56311;50.298;8.514;2022-11-27T05:57:11;31.75;;;14.50;;
69197;SDS011;56311;50.298;8.514;2022-11-27T05:59:37;27.50;;;13.18;;
69197;SDS011;56311;50.298;8.514;2022-11-27T06:02:05;31.80;;;15.40;;
69197;SDS011;56311;50.298;8.514;2022-11-27T06:04:32;30.40;;;14.50;;
69197;SDS011;56311;50.298;8.514;2022-11-27T06:06:59;29.60;;;16.00;;
69197;SDS011;56311;50.298;8.514;2022-11-27T06:09:26;28.23;;;15.10;;
69197;SDS011;56311;50.298;8.514;2022-11-27T06:11:53;32.10;;;15.40;;
69197;SDS011;56311;50.298;8.514;2022-11-27T06:14:20;28.90;;;15.60;;
69197;SDS011;56311;50.298;8.514;2022-11-27T06:16:46;31.23;;;15.55;;
69197;SDS011;56311;50.298;8.514;2022-11-27T06:19:15;26.25;;;14.05;;
69197;SDS011;56311;50.298;8.514;2022-11-27T06:21:41;28.00;;;14.63;;
69197;SDS011;56311;50.298;8.514;2022-11-27T06:24:09;28.88;;;14.70;;
69197;SDS011;56311;50.298;8.514;2022-11-27T06:26:36;25.58;;;15.10;;
69197;SDS011;56311;50.298;8.514;2022-11-27T06:29:02;28.88;;;14.40;;
69197;SDS011;56311;50.298;8.514;2022-11-27T06:31:29;29.85;;;14.07;;
69197;SDS011;56311;50.298;8.514;2022-11-27T06:33:58;27.30;;;14.85;;
69197;SDS011;56311;50.298;8.514;2022-11-27T06:36:28;22.98;;;13.20;;
69197;SDS011;56311;50.298;8.514;2022-11-27T06:38:56;26.10;;;13.18;;
69197;SDS011;56311;50.298;8.514;2022-11-27T06:41:23;25.70;;;14.40;;
69197;SDS011;56311;50.298;8.514;2022-11-27T06:43:52;27.67;;;13.73;;
69197;SDS011;56311;50.298;8.514;2022-11-27T06:46:20;25.10;;;13.27;;
69197;SDS011;56311;50.298;8.514;2022-11-27T06:48:49;23.35;;;12.32;;
69197;SDS011;56311;50.298;8.514;2022-11-27T06:51:18;17.65;;;10.57;;
69197;SDS011;56311;50.298;8.514;2022-11-27T06:53:48;21.20;;;9.60;;
69197;SDS011;56311;50.298;8.514;2022-11-27T06:56:16;19.40;;;11.10;;
69197;SDS011;56311;50.298;8.514;2022-11-27T06:58:44;23.23;;;13.07;;
69197;SDS011;56311;50.298;8.514;2022-11-27T07:01:12;17.85;;;8.45;;
69197;SDS011;56311;50.298;8.514;2022-11-27T07:03:40;20.27;;;9.55;;
69197;SDS011;56311;50.298;8.514;2022-11-27T07:06:07;17.58;;;8.77;;
69197;SDS011;56311;50.298;8.514;2022-11-27T07:08:35;16.30;;;7.68;;
69197;SDS011;56311;50.298;8.514;2022-11-27T07:11:04;15.98;;;8.13;;
69197;SDS011;56311;50.298;8.514;2022-11-27T07:13:33;14.73;;;8.00;;
69197;SDS011;56311;50.298;8.514;2022-11-27T07:16:00;14.20;;;7.07;;
69197;SDS011;56311;50.298;8.514;2022-11-27T07:18:27;14.02;;;6.97;;
69197;SDS011;56311;50.298;8.514;2022-11-27T07:20:54;18.40;;;7.10;;
69197;SDS011;56311;50.298;8.514;2022-11-27T07:23:22;12.88;;;6.60;;
69197;SDS011;56311;50.298;8.514;2022-11-27T07:25:49;15.25;;;5.93;;
69197;SDS011;56311;50.298;8.514;2022-11-27T07:28:17;11.73;;;6.20;;
69197;SDS011;56311;50.298;8.514;2022-11-27T07:30:44;10.95;;;5.50;;
69197;SDS011;56311;50.298;8.514;2022-11-27T07:33:11;13.50;;;6.28;;
69197;SDS011;56311;50.298;8.514;2022-11-27T07:35:38;13.65;;;5.43;;
69197;SDS011;56311;50.298;8.514;2022-11-27T07:38:05;11.10;;;5.03;;
69197;SDS011;56311;50.298;8.514;2022-11-27T07:40:31;13.40;;;5.25;;
69197;SDS011;56311;50.298;8.514;2022-11-27T07:42:58;11.63;;;5.40;;
69197;SDS011;56311;50.298;8.514;2022-11-27T07:45:26;12.10;;;5.38;;
69197;SDS011;56311;50.298;8.514;2022-11-27T07:47:53;11.80;;;4.65;;
69197;SDS011;56311;50.298;8.514;2022-11-27T07:50:20;14.45;;;4.97;;
69197;SDS011;56311;50.298;8.514;2022-11-27T07:52:47;15.57;;;6.05;;
69197;SDS011;56311;50.298;8.514;2022-11-27T07:55:14;10.82;;;5.03;;
69197;SDS011;56311;50.298;8.514;2022-11-27T07:57:40;12.57;;;4.35;;
69197;SDS011;56311;50.298;8.514;2022-11-27T08:00:08;13.02;;;4.55;;
69197;SDS011;56311;50.298;8.514;2022-11-27T08:02:37;10.00;;;4.70;;
69197;SDS011;56311;50.298;8.514;2022-11-27T08:05:04;8.25;;;4.25;;
69197;SDS011;56311;50.298;8.514;2022-11-27T08:07:37;11.10;;;5.35;;
69197;SDS011;56311;50.298;8.514;2022-11-27T08:10:05;10.98;;;4.90;;
69197;SDS011;56311;50.298;8.514;2022-11-27T08:12:33;11.48;;;3.90;;
69197;SDS011;56311;50.298;8.514;2022-11-27T08:14:59;9.07;;;4.38;;
69197;SDS011;56311;50.298;8.514;2022-11-27T08:17:26;11.77;;;4.90;;
69197;SDS011;56311;50.298;8.514;2022-11-27T08:19:54;10.75;;;5.50;;
69197;SDS011;56311;50.298;8.514;2022-11-27T08:22:21;13.98;;;5.80;;
69197;SDS011;56311;50.298;8.514;2022-11-27T08:24:48;11.35;;;4.78;;
69197;SDS011;56311;50.298;8.514;2022-11-27T08:27:16;13.05;;;4.68;;
69197;SDS011;56311;50.298;8.514;2022-11-27T08:29:43;11.48;;;3.72;;
69197;SDS011;56311;50.298;8.514;2022-11-27T08:32:10;11.38;;;4.15;;
69197;SDS011;56311;50.298;8.514;2022-11-27T08:34:37;13.05;;;4.13;;
69197;SDS011;56311;50.298;8.514;2022-11-27T08:37:06;9.82;;;4.70;;
69197;SDS011;56311;50.298;8.514;2022-11-27T08:39:33;8.52;;;4.30;;
69197;SDS011;56311;50.298;8.514;2022-11-27T08:42:00;13.75;;;5.50;;
69197;SDS011;56311;50.298;8.514;2022-11-27T08:44:27;9.88;;;5.82;;
69197;SDS011;56311;50.298;8.514;2022-11-27T08:46:54;12.52;;;5.55;;
69197;SDS011;56311;50.298;8.514;2022-11-27T08:49:21;7.32;;;4.25;;
69197;SDS011;56311;50.298;8.514;2022-11-27T08:51:51;7.53;;;3.53;;
69197;SDS011;56311;50.298;8.514;2022-11-27T08:54:19;9.38;;;4.10;;
69197;SDS011;56311;50.298;8.514;2022-11-27T08:56:46;11.50;;;3.90;;
69197;SDS011;56311;50.298;8.514;2022-11-27T08:59:13;24.55;;;15.52;;
69197;SDS011;56311;50.298;8.514;2022-11-27T09:01:39;20.33;;;12.52;;
69197;SDS011;56311;50.298;8.514;2022-11-27T09:04:06;8.05;;;3.55;;
69197;SDS011;56311;50.298;8.514;2022-11-27T09:06:33;9.45;;;3.60;;
69197;SDS011;56311;50.298;8.514;2022-11-27T09:09:00;9.23;;;3.00;;
69197;SDS011;56311;50.298;8.514;2022-11-27T09:11:31;8.07;;;3.33;;
69197;SDS011;56311;50.298;8.514;2022-11-27T09:13:59;6.18;;;2.97;;
69197;SDS011;56311;50.298;8.514;2022-11-27T09:16:27;8.07;;;2.90;;
69197;SDS011;56311;50.298;8.514;2022-11-27T09:18:56;7.38;;;2.70;;
69197;SDS011;56311;50.298;8.514;2022-11-27T09:21:24;9.25;;;3.65;;
69197;SDS011;56311;50.298;8.514;2022-11-27T09:23:56;9.13;;;3.30;;
69197;SDS011;56311;50.298;8.514;2022-11-27T09:26:25;8.55;;;3.22;;
69197;SDS011;56311;50.298;8.514;2022-11-27T09:28:54;8.48;;;3.58;;
69197;SDS011;56311;50.298;8.514;2022-11-27T09:31:23;6.40;;;3.40;;
69197;SDS011;56311;50.298;8.514;2022-11-27T09:33:51;7.32;;;3.28;;
69197;SDS011;56311;50.298;8.514;2022-11-27T09:36:18;11.88;;;3.78;;
69197;SDS011;56311;50.298;8.514;2022-11-27T09:38:47;8.57;;;4.47;;
69197;SDS011;56311;50.298;8.514;2022-11-27T09:41:24;13.13;;;5.30;;
69197;SDS011;56311;50.298;8.514;2022-11-27T09:44:04;11.40;;;6.70;;
69197;SDS011;56311;50.298;8.514;2022-11-27T09:46:42;12.98;;;7.03;;
69197;SDS011;56311;50.298;8.514;2022-11-27T09:49:12;8.95;;;5.10;;
69197;SDS011;56311;50.298;8.514;2022-11-27T09:51:41;10.70;;;6.70;;
69197;SDS011;56311;50.298;8.514;2022-11-27T09:54:14;15.05;;;6.45;;
69197;SDS011;56311;50.298;8.514;2022-11-27T09:56:45;11.70;;;6.47;;
69197;SDS011;56311;50.298;8.514;2022-11-27T09:59:17;11.13;;;6.15;;
69197;SDS011;56311;50.298;8.514;2022-11-27T10:01:45;12.23;;;5.75;;
69197;SDS011;56311;50.298;8.514;2022-11-27T10:04:17;12.48;;;4.93;;
69197;SDS011;56311;50.298;8.514;2022-11-27T10:06:50;13.57;;;6.15;;
69197;SDS011;56311;50.298;8.514;2022-11-27T10:09:28;9.05;;;4.82;;
69197;SDS011;56311;50.298;8.514;2022-11-27T10:12:05;11.10;;;5.10;;
69197;SDS011;56311;50.298;8.514;2022-11-27T10:14:45;8.95;;;4.63;;
69197;SDS011;56311;50.298;8.514;2022-11-27T10:17:26;9.93;;;4.57;;
69197;SDS011;56311;50.298;8.514;2022-11-27T10:19:59;11.02;;;5.20;;
69197;SDS011;56311;50.298;8.514;2022-11-27T10:22:39;12.07;;;4.72;;
69197;SDS011;56311;50.298;8.514;2022-11-27T10:25:13;9.52;;;4.03;;
69197;SDS011;56311;50.298;8.514;2022-11-27T10:27:44;10.82;;;4.97;;
69197;SDS011;56311;50.298;8.514;2022-11-27T10:30:23;11.88;;;5.10;;
69197;SDS011;56311;50.298;8.514;2022-11-27T10:32:54;8.88;;;4.05;;
69197;SDS011;56311;50.298;8.514;2022-11-27T10:35:23;12.77;;;6.28;;
69197;SDS011;56311;50.298;8.514;2022-11-27T10:37:51;8.80;;;5.57;;
69197;SDS011;56311;50.298;8.514;2022-11-27T10:40:22;11.00;;;4.15;;
69197;SDS011;56311;50.298;8.514;2022-11-27T10:42:54;9.93;;;5.50;;
69197;SDS011;56311;50.298;8.514;2022-11-27T10:45:35;12.63;;;5.70;;
69197;SDS011;56311;50.298;8.514;2022-11-27T10:48:05;13.30;;;6.15;;
69197;SDS011;56311;50.298;8.514;2022-11-27T10:50:32;12.23;;;6.45;;
69197;SDS011;56311;50.298;8.514;2022-11-27T10:52:59;14.07;;;7.47;;
69197;SDS011;56311;50.298;8.514;2022-11-27T10:55:33;15.35;;;7.00;;
69197;SDS011;56311;50.298;8.514;2022-11-27T10:58:12;13.18;;;6.95;;
69197;SDS011;56311;50.298;8.514;2022-11-27T11:00:46;11.60;;;6.32;;
69197;SDS011;56311;50.298;8.514;2022-11-27T11:03:15;12.77;;;5.93;;
69197;SDS011;56311;50.298;8.514;2022-11-27T11:05:52;11.82;;;5.70;;
69197;SDS011;56311;50.298;8.514;2022-11-27T11:08:41;12.82;;;5.78;;
69197;SDS011;56311;50.298;8.514;2022-11-27T11:11:08;14.32;;;6.63;;
69197;SDS011;56311;50.298;8.514;2022-11-27T11:13:41;14.10;;;6.28;;
69197;SDS011;56311;50.298;8.514;2022-11-27T11:16:17;10.00;;;4.55;;
69197;SDS011;56311;50.298;8.514;2022-11-27T11:18:50;7.82;;;4.03;;
69197;SDS011;56311;50.298;8.514;2022-11-27T11:21:18;8.55;;;4.30;;
69197;SDS011;56311;50.298;8.514;2022-11-27T11:23:52;10.10;;;3.67;;
69197;SDS011;56311;50.298;8.514;2022-11-27T11:28:54;9.30;;;4.40;;
69197;SDS011;56311;50.298;8.514;2022-11-27T11:31:28;11.25;;;4.82;;
69197;SDS011;56311;50.298;8.514;2022-11-27T11:33:59;8.55;;;4.40;;
69197;SDS011;56311;50.298;8.514;2022-11-27T11:36:28;13.20;;;6.63;;
69197;SDS011;56311;50.298;8.514;2022-11-27T11:38:55;14.07;;;6.82;;
69197;SDS011;56311;50.298;8.514;2022-11-27T11:41:22;13.93;;;7.32;;
69197;SDS011;56311;50.298;8.514;2022-11-27T11:43:56;17.75;;;10.43;;
69197;SDS011;56311;50.298;8.514;2022-11-27T11:46:25;8.57;;;4.18;;
69197;SDS011;56311;50.298;8.514;2022-11-27T11:48:57;10.27;;;4.85;;
69197;SDS011;56311;50.298;8.514;2022-11-27T11:51:33;12.95;;;5.25;;
69197;SDS011;56311;50.298;8.514;2022-11-27T11:57:25;10.52;;;5.22;;
69197;SDS011;56311;50.298;8.514;2022-11-27T12:00:10;9.95;;;4.30;;
69197;SDS011;56311;50.298;8.514;2022-11-27T12:02:50;8.00;;;4.15;;
69197;SDS011;56311;50.298;8.514;2022-11-27T12:05:44;8.85;;;3.90;;
69197;SDS011;56311;50.298;8.514;2022-11-27T12:08:27;13.45;;;5.45;;
69197;SDS011;56311;50.298;8.514;2022-11-27T12:11:07;10.35;;;5.72;;
69197;SDS011;56311;50.298;8.514;2022-11-27T12:13:45;9.57;;;4.65;;
69197;SDS011;56311;50.298;8.514;2022-11-27T12:16:22;12.30;;;6.30;;
69197;SDS011;56311;50.298;8.514;2022-11-27T12:19:00;14.18;;;7.07;;
69197;SDS011;56311;50.298;8.514;2022-11-27T12:21:45;12.57;;;6.93;;
69197;SDS011;56311;50.298;8.514;2022-11-27T12:24:25;11.60;;;7.10;;
69197;SDS011;56311;50.298;8.514;2022-11-27T12:27:08;14.02;;;7.30;;
69197;SDS011;56311;50.298;8.514;2022-11-27T12:29:50;13.40;;;7.15;;
69197;SDS011;56311;50.298;8.514;2022-11-27T12:32:30;15.38;;;8.48;;
69197;SDS011;56311;50.298;8.514;2022-11-27T12:35:16;13.48;;;8.23;;
69197;SDS011;56311;50.298;8.514;2022-11-27T12:37:56;14.35;;;7.95;;
69197;SDS011;56311;50.298;8.514;2022-11-27T12:40:39;13.00;;;7.78;;
69197;SDS011;56311;50.298;8.514;2022-11-27T12:43:19;13.45;;;8.02;;
69197;SDS011;56311;50.298;8.514;2022-11-27T12:45:50;15.10;;;7.28;;
69197;SDS011;56311;50.298;8.514;2022-11-27T12:48:23;12.07;;;7.03;;
69197;SDS011;56311;50.298;8.514;2022-11-27T12:50:53;13.23;;;7.38;;
69197;SDS011;56311;50.298;8.514;2022-11-27T12:53:27;11.23;;;5.93;;
69197;SDS011;56311;50.298;8.514;2022-11-27T12:56:02;10.07;;;5.50;;
69197;SDS011;56311;50.298;8.514;2022-11-27T12:58:36;11.18;;;6.20;;
69197;SDS011;56311;50.298;8.514;2022-11-27T13:01:08;8.95;;;4.70;;
69197;SDS011;56311;50.298;8.514;2022-11-27T13:03:41;9.23;;;5.03;;
69197;SDS011;56311;50.298;8.514;2022-11-27T13:06:15;10.32;;;4.38;;
69197;SDS011;56311;50.298;8.514;2022-11-27T13:08:48;9.57;;;4.20;;
69197;SDS011;56311;50.298;8.514;2022-11-27T13:11:22;12.73;;;4.68;;
69197;SDS011;56311;50.298;8.514;2022-11-27T13:13:54;8.10;;;4.80;;
69197;SDS011;56311;50.298;8.514;2022-11-27T13:16:26;11.52;;;5.13;;
69197;SDS011;56311;50.298;8.514;2022-11-27T13:19:03;11.60;;;5.50;;
69197;SDS011;56311;50.298;8.514;2022-11-27T13:21:35;12.63;;;6.00;;
69197;SDS011;56311;50.298;8.514;2022-11-27T13:24:08;11.45;;;5.80;;
69197;SDS011;56311;50.298;8.514;2022-11-27T13:26:51;7.57;;;5.33;;
69197;SDS011;56311;50.298;8.514;2022-11-27T13:29:28;10.48;;;5.25;;
69197;SDS011;56311;50.298;8.514;2022-11-27T13:32:00;8.65;;;4.70;;
69197;SDS011;56311;50.298;8.514;2022-11-27T13:34:28;8.95;;;5.07;;
69197;SDS011;56311;50.298;8.514;2022-11-27T13:36:58;8.70;;;4.50;;
69197;SDS011;56311;50.298;8.514;2022-11-27T13:39:29;13.02;;;4.82;;
69197;SDS011;56311;50.298;8.514;2022-11-27T13:42:01;11.77;;;5.60;;
69197;SDS011;56311;50.298;8.514;2022-11-27T13:44:31;20.38;;;12.88;;
69197;SDS011;56311;50.298;8.514;2022-11-27T13:47:07;10.70;;;5.90;;
69197;SDS011;56311;50.298;8.514;2022-11-27T13:49:37;13.48;;;6.63;;
69197;SDS011;56311;50.298;8.514;2022-11-27T13:52:06;10.20;;;6.30;;
69197;SDS011;56311;50.298;8.514;2022-11-27T13:54:37;14.07;;;6.57;;
69197;SDS011;56311;50.298;8.514;2022-11-27T13:57:10;11.80;;;6.03;;
69197;SDS011;56311;50.298;8.514;2022-11-27T13:59:40;13.38;;;6.90;;
69197;SDS011;56311;50.298;8.514;2022-11-27T14:02:22;11.00;;;6.28;;
69197;SDS011;56311;50.298;8.514;2022-11-27T14:04:51;10.57;;;6.43;;
69197;SDS011;56311;50.298;8.514;2022-11-27T14:07:32;12.52;;;6.15;;
69197;SDS011;56311;50.298;8.514;2022-11-27T14:10:07;10.40;;;6.25;;
69197;SDS011;56311;50.298;8.514;2022-11-27T14:12:37;9.80;;;6.60;;
69197;SDS011;56311;50.298;8.514;2022-11-27T14:15:05;11.75;;;6.40;;
69197;SDS011;56311;50.298;8.514;2022-11-27T14:17:35;11.20;;;6.32;;
69197;SDS011;56311;50.298;8.514;2022-11-27T14:20:05;12.93;;;6.97;;
69197;SDS011;56311;50.298;8.514;2022-11-27T14:22:47;9.15;;;5.75;;
69197;SDS011;56311;50.298;8.514;2022-11-27T14:25:37;11.48;;;6.28;;
69197;SDS011;56311;50.298;8.514;2022-11-27T14:28:08;11.93;;;6.63;;
69197;SDS011;56311;50.298;8.514;2022-11-27T14:30:42;11.90;;;6.53;;
69197;SDS011;56311;50.298;8.514;2022-11-27T14:33:16;12.90;;;6.57;;
69197;SDS011;56311;50.298;8.514;2022-11-27T14:35:49;14.43;;;6.32;;
69197;SDS011;56311;50.298;8.514;2022-11-27T14:38:20;9.98;;;6.00;;
69197;SDS011;56311;50.298;8.514;2022-11-27T14:40:51;11.15;;;6.03;;
69197;SDS011;56311;50.298;8.514;2022-11-27T14:43:20;9.68;;;6.07;;
69197;SDS011;56311;50.298;8.514;2022-11-27T14:45:52;9.45;;;6.13;;
69197;SDS011;56311;50.298;8.514;2022-11-27T14:48:20;10.75;;;5.85;;
69197;SDS011;56311;50.298;8.514;2022-11-27T14:50:49;10.82;;;5.78;;
69197;SDS011;56311;50.298;8.514;2022-11-27T14:53:18;13.60;;;6.00;;
69197;SDS011;56311;50.298;8.514;2022-11-27T14:55:47;12.15;;;6.13;;
69197;SDS011;56311;50.298;8.514;2022-11-27T14:58:18;11.40;;;5.70;;